Time,TemperatureF,DewpointF,PressureIn,WindDirection,WindDirectionDegrees,WindSpeedMPH,WindSpeedGustMPH,Humidity,HourlyPrecipIn,Conditions,Clouds,dailyrainin,SoftwareType,DateUTC
2013-01-01 00:00:00,31.4,25.6,29.83,WSW,257,2.0,6.0,79,0.00,,---,0.00,VWS V14.00,2013-01-01 05:00:00,
2013-01-01 00:05:00,31.4,26.0,29.82,NW,304,0.0,6.0,80,0.00,,---,0.00,VWS V14.00,2013-01-01 05:05:00,
2013-01-01 00:10:00,31.3,25.9,29.82,WNW,293,1.0,6.0,80,0.00,,---,0.00,VWS V14.00,2013-01-01 05:10:00,
2013-01-01 00:15:00,31.2,25.8,29.83,NW,323,1.0,6.0,80,0.00,,---,0.00,VWS V14.00,2013-01-01 05:15:00,
2013-01-01 00:20:00,31.2,26.1,29.83,NW,306,1.0,6.0,81,0.00,,---,0.00,VWS V14.00,2013-01-01 05:20:00,
2013-01-01 00:25:00,31.2,26.1,29.83,NW,305,2.0,2.0,81,0.00,,---,0.00,VWS V14.00,2013-01-01 05:25:00,
2013-01-01 00:30:00,31.2,26.1,29.82,WNW,284,0.0,5.0,81,0.00,,---,0.00,VWS V14.00,2013-01-01 05:30:00,
2013-01-01 00:35:00,31.2,26.1,29.82,WNW,284,0.0,5.0,81,0.00,,---,0.00,VWS V14.00,2013-01-01 05:35:00,
2013-01-01 00:40:00,31.2,26.4,29.83,West,281,1.0,5.0,82,0.00,,---,0.00,VWS V14.00,2013-01-01 05:40:00,
2013-01-01 00:45:00,31.3,26.2,29.83,WNW,293,1.0,5.0,81,0.00,,---,0.00,VWS V14.00,2013-01-01 05:45:00,
2013-01-01 00:50:00,31.4,26.2,29.82,WSW,257,0.0,5.0,81,0.00,,---,0.00,VWS V14.00,2013-01-01 05:50:00,
2013-01-01 01:00:00,31.5,26.4,29.83,WNW,301,3.0,3.0,81,0.00,,---,0.00,VWS V14.00,2013-01-01 06:00:00,
2013-01-01 01:10:00,31.6,26.5,29.83,West,279,0.0,5.0,81,0.00,,---,0.00,VWS V14.00,2013-01-01 06:10:00,
2013-01-01 01:15:00,31.6,26.8,29.83,West,279,0.0,5.0,82,0.00,,---,0.00,VWS V14.00,2013-01-01 06:15:00,
2013-01-01 01:20:00,31.5,26.6,29.83,West,267,2.0,5.0,82,0.00,,---,0.00,VWS V14.00,2013-01-01 06:20:00,
2013-01-01 01:25:00,31.5,26.6,29.84,West,267,0.0,1.0,82,0.00,,---,0.00,VWS V14.00,2013-01-01 06:25:00,
2013-01-01 01:30:00,31.4,26.5,29.83,NW,308,2.0,4.0,82,0.00,,---,0.00,VWS V14.00,2013-01-01 06:30:00,
2013-01-01 01:35:00,31.4,26.5,29.82,SW,219,1.0,4.0,82,0.00,,---,0.00,VWS V14.00,2013-01-01 06:35:00,
2013-01-01 01:40:00,31.4,26.5,29.83,WSW,249,2.0,4.0,82,0.00,,---,0.00,VWS V14.00,2013-01-01 06:40:00,
2013-01-01 01:45:00,31.4,26.5,29.83,WNW,286,1.0,4.0,82,0.00,,---,0.00,VWS V14.00,2013-01-01 06:45:00,
2013-01-01 01:50:00,31.4,26.5,29.83,WNW,286,0.0,4.0,82,0.00,,---,0.00,VWS V14.00,2013-01-01 06:50:00,
2013-01-01 01:55:00,31.5,26.6,29.83,WNW,286,0.0,0.0,82,0.00,,---,0.00,VWS V14.00,2013-01-01 06:55:00,
2013-01-01 02:00:00,31.4,26.5,29.83,WNW,286,0.0,1.0,82,0.00,,---,0.00,VWS V14.00,2013-01-01 07:00:00,
2013-01-01 02:05:00,31.4,26.5,29.83,WNW,296,0.0,2.0,82,0.00,,---,0.00,VWS V14.00,2013-01-01 07:05:00,
2013-01-01 02:10:00,31.4,26.5,29.83,WNW,296,0.0,2.0,82,0.00,,---,0.00,VWS V14.00,2013-01-01 07:10:00,
2013-01-01 02:15:00,31.4,26.5,29.83,WNW,296,0.0,2.0,82,0.00,,---,0.00,VWS V14.00,2013-01-01 07:15:00,
2013-01-01 02:20:00,31.5,26.6,29.83,WSW,255,0.0,3.0,82,0.00,,---,0.00,VWS V14.00,2013-01-01 07:20:00,
2013-01-01 02:25:00,31.5,26.6,29.82,NW,316,0.0,1.0,82,0.00,,---,0.00,VWS V14.00,2013-01-01 07:25:00,
2013-01-01 02:30:00,31.5,26.6,29.82,WNW,285,0.0,1.0,82,0.00,,---,0.00,VWS V14.00,2013-01-01 07:30:00,
2013-01-01 02:35:00,31.5,26.6,29.82,WNW,285,0.0,1.0,82,0.00,,---,0.00,VWS V14.00,2013-01-01 07:35:00,
2013-01-01 02:40:00,31.5,26.6,29.82,NW,309,1.0,2.0,82,0.00,,---,0.00,VWS V14.00,2013-01-01 07:40:00,
2013-01-01 02:45:00,31.6,26.8,29.82,WNW,293,0.0,2.0,82,0.00,,---,0.00,VWS V14.00,2013-01-01 07:45:00,
2013-01-01 02:50:00,31.6,26.8,29.81,West,275,0.0,2.0,82,0.00,,---,0.00,VWS V14.00,2013-01-01 07:50:00,
2013-01-01 02:55:00,31.6,26.8,29.81,NW,307,1.0,1.0,82,0.00,,---,0.00,VWS V14.00,2013-01-01 07:55:00,
2013-01-01 03:00:00,31.7,27.1,29.82,NW,312,0.0,2.0,83,0.00,,---,0.00,VWS V14.00,2013-01-01 08:00:00,
2013-01-01 03:05:00,31.6,27.0,29.82,NW,312,0.0,2.0,83,0.00,,---,0.00,VWS V14.00,2013-01-01 08:05:00,
2013-01-01 03:10:00,31.7,27.1,29.82,NW,309,0.0,2.0,83,0.00,,---,0.00,VWS V14.00,2013-01-01 08:10:00,
2013-01-01 03:15:00,31.7,27.1,29.83,NW,309,0.0,2.0,83,0.00,,---,0.00,VWS V14.00,2013-01-01 08:15:00,
2013-01-01 03:20:00,31.7,27.1,29.83,NW,309,0.0,2.0,83,0.00,,---,0.00,VWS V14.00,2013-01-01 08:20:00,
2013-01-01 03:25:00,31.8,27.2,29.82,NW,309,0.0,0.0,83,0.00,,---,0.00,VWS V14.00,2013-01-01 08:25:00,
2013-01-01 03:30:00,31.8,27.2,29.83,NW,309,0.0,2.0,83,0.00,,---,0.00,VWS V14.00,2013-01-01 08:30:00,
2013-01-01 03:35:00,31.7,27.4,29.82,SW,221,0.0,4.0,84,0.00,,---,0.00,VWS V14.00,2013-01-01 08:35:00,
2013-01-01 03:40:00,31.9,27.3,29.83,NNW,335,0.0,4.0,83,0.00,,---,0.00,VWS V14.00,2013-01-01 08:40:00,
2013-01-01 03:45:00,32.0,27.4,29.83,NNW,335,0.0,4.0,83,0.00,,---,0.00,VWS V14.00,2013-01-01 08:45:00,
2013-01-01 03:50:00,32.1,27.2,29.82,NW,315,0.0,4.0,82,0.00,,---,0.00,VWS V14.00,2013-01-01 08:50:00,
2013-01-01 03:55:00,32.2,27.3,29.82,NW,315,1.0,1.0,82,0.00,,---,0.00,VWS V14.00,2013-01-01 08:55:00,
2013-01-01 04:00:00,32.3,27.4,29.82,NW,315,0.0,1.0,82,0.00,,---,0.00,VWS V14.00,2013-01-01 09:00:00,
2013-01-01 04:05:00,32.2,27.6,29.81,NW,315,0.0,1.0,83,0.00,,---,0.00,VWS V14.00,2013-01-01 09:05:00,
2013-01-01 04:10:00,32.1,27.8,29.82,NNW,327,0.0,1.0,84,0.00,,---,0.00,VWS V14.00,2013-01-01 09:10:00,
2013-01-01 04:15:00,32.0,27.4,29.83,NW,309,1.0,2.0,83,0.00,,---,0.00,VWS V14.00,2013-01-01 09:15:00,
2013-01-01 04:20:00,32.1,27.5,29.82,NW,309,0.0,2.0,83,0.00,,---,0.00,VWS V14.00,2013-01-01 09:20:00,
2013-01-01 04:25:00,32.1,27.2,29.82,NW,309,0.0,0.0,82,0.00,,---,0.00,VWS V14.00,2013-01-01 09:25:00,
2013-01-01 04:30:00,32.2,27.3,29.82,WNW,298,0.0,4.0,82,0.00,,---,0.00,VWS V14.00,2013-01-01 09:30:00,
2013-01-01 04:35:00,32.3,27.4,29.82,WNW,298,0.0,4.0,82,0.00,,---,0.00,VWS V14.00,2013-01-01 09:35:00,
2013-01-01 04:40:00,32.4,27.8,29.82,WNW,298,0.0,4.0,83,0.00,,---,0.00,VWS V14.00,2013-01-01 09:40:00,
2013-01-01 04:45:00,32.3,27.7,29.82,NW,315,4.0,7.0,83,0.00,,---,0.00,VWS V14.00,2013-01-01 09:45:00,
2013-01-01 04:50:00,32.4,27.5,29.82,NW,311,0.0,7.0,82,0.00,,---,0.00,VWS V14.00,2013-01-01 09:50:00,
2013-01-01 04:55:00,32.5,27.6,29.82,NW,311,1.0,7.0,82,0.00,,---,0.00,VWS V14.00,2013-01-01 09:55:00,
2013-01-01 05:00:00,32.5,27.6,29.82,WNW,283,0.0,3.0,82,0.00,,---,0.00,VWS V14.00,2013-01-01 10:00:00,
2013-01-01 05:05:00,32.5,27.6,29.82,WNW,283,0.0,3.0,82,0.00,,---,0.00,VWS V14.00,2013-01-01 10:05:00,
2013-01-01 05:10:00,32.4,27.8,29.81,WNW,283,0.0,3.0,83,0.00,,---,0.00,VWS V14.00,2013-01-01 10:10:00,
2013-01-01 05:15:00,32.3,27.1,29.82,WNW,283,0.0,3.0,81,0.00,,---,0.00,VWS V14.00,2013-01-01 10:15:00,
2013-01-01 05:20:00,32.4,27.2,29.82,WNW,283,0.0,3.0,81,0.00,,---,0.00,VWS V14.00,2013-01-01 10:20:00,
2013-01-01 05:25:00,32.4,27.5,29.82,WNW,283,2.0,2.0,82,0.00,,---,0.00,VWS V14.00,2013-01-01 10:25:00,
2013-01-01 05:30:00,32.4,26.6,29.82,WNW,283,1.0,2.0,79,0.00,,---,0.00,VWS V14.00,2013-01-01 10:30:00,
2013-01-01 05:35:00,32.7,26.3,29.82,WSW,250,3.0,4.0,77,0.00,,---,0.00,VWS V14.00,2013-01-01 10:35:00,
2013-01-01 05:40:00,33.5,25.5,29.82,WNW,292,0.0,8.0,72,0.00,,---,0.00,VWS V14.00,2013-01-01 10:40:00,
2013-01-01 05:45:00,34.1,25.7,29.82,WNW,286,2.0,9.0,71,0.00,,---,0.00,VWS V14.00,2013-01-01 10:45:00,
2013-01-01 05:50:00,34.1,27.0,29.83,West,261,1.0,9.0,75,0.00,,---,0.00,VWS V14.00,2013-01-01 10:50:00,
2013-01-01 05:55:00,34.1,26.0,29.83,NW,311,9.0,14.0,72,0.00,,---,0.00,VWS V14.00,2013-01-01 10:55:00,
2013-01-01 06:00:00,34.4,24.6,29.82,WNW,299,0.0,14.0,67,0.00,,---,0.00,VWS V14.00,2013-01-01 11:00:00,
2013-01-01 06:05:00,34.6,24.4,29.82,WSW,246,3.0,14.0,66,0.00,,---,0.00,VWS V14.00,2013-01-01 11:05:00,
2013-01-01 06:10:00,34.5,24.0,29.83,West,263,5.0,14.0,65,0.00,,---,0.00,VWS V14.00,2013-01-01 11:10:00,
2013-01-01 06:15:00,34.6,23.7,29.84,WNW,283,1.0,14.0,64,0.00,,---,0.00,VWS V14.00,2013-01-01 11:15:00,
2013-01-01 06:20:00,34.5,25.0,29.84,West,275,3.0,14.0,68,0.00,,---,0.00,VWS V14.00,2013-01-01 11:20:00,
2013-01-01 06:25:00,34.3,24.1,29.83,WSW,247,3.0,3.0,66,0.00,,---,0.00,VWS V14.00,2013-01-01 11:25:00,
2013-01-01 06:30:00,34.3,23.4,29.83,SW,233,0.0,3.0,64,0.00,,---,0.00,VWS V14.00,2013-01-01 11:30:00,
2013-01-01 06:35:00,34.3,23.4,29.83,SW,234,0.0,3.0,64,0.00,,---,0.00,VWS V14.00,2013-01-01 11:35:00,
2013-01-01 06:40:00,34.1,23.2,29.83,WNW,294,0.0,3.0,64,0.00,,---,0.00,VWS V14.00,2013-01-01 11:40:00,
2013-01-01 06:45:00,34.0,23.9,29.84,WNW,294,1.0,3.0,66,0.00,,---,0.00,VWS V14.00,2013-01-01 11:45:00,
2013-01-01 06:50:00,33.9,22.3,29.84,WNW,284,0.0,3.0,62,0.00,,---,0.00,VWS V14.00,2013-01-01 11:50:00,
2013-01-01 06:55:00,33.8,23.7,29.84,WNW,284,0.0,0.0,66,0.00,,---,0.00,VWS V14.00,2013-01-01 11:55:00,
2013-01-01 07:00:00,33.5,23.7,29.84,WNW,284,0.0,0.0,67,0.00,,---,0.00,VWS V14.00,2013-01-01 12:00:00,
2013-01-01 07:05:00,33.3,23.2,29.85,WNW,284,0.0,2.0,66,0.00,,---,0.00,VWS V14.00,2013-01-01 12:05:00,
2013-01-01 07:10:00,33.0,24.3,29.85,West,277,0.0,3.0,70,0.00,,---,0.00,VWS V14.00,2013-01-01 12:10:00,
2013-01-01 07:15:00,32.8,22.0,29.85,West,274,0.0,5.0,64,0.00,,---,0.00,VWS V14.00,2013-01-01 12:15:00,
2013-01-01 07:20:00,33.1,21.9,29.84,NW,304,0.0,5.0,63,0.00,,---,0.00,VWS V14.00,2013-01-01 12:20:00,
2013-01-01 07:25:00,33.2,22.7,29.84,NW,304,0.0,0.0,65,0.00,,---,0.00,VWS V14.00,2013-01-01 12:25:00,
2013-01-01 07:30:00,33.2,22.0,29.84,NW,304,1.0,1.0,63,0.00,,---,0.00,VWS V14.00,2013-01-01 12:30:00,
2013-01-01 07:35:00,33.1,22.3,29.84,NW,304,0.0,2.0,64,0.00,,---,0.00,VWS V14.00,2013-01-01 12:35:00,
2013-01-01 07:40:00,32.9,22.1,29.84,NW,304,0.0,2.0,64,0.00,,---,0.00,VWS V14.00,2013-01-01 12:40:00,
2013-01-01 07:45:00,32.9,22.1,29.84,NW,304,0.0,2.0,64,0.00,,---,0.00,VWS V14.00,2013-01-01 12:45:00,
2013-01-01 07:50:00,32.8,22.3,29.83,NW,304,2.0,3.0,65,0.00,,---,0.00,VWS V14.00,2013-01-01 12:50:00,
2013-01-01 07:55:00,32.9,22.4,29.83,NW,317,0.0,0.0,65,0.00,,---,0.00,VWS V14.00,2013-01-01 12:55:00,
2013-01-01 08:00:00,33.0,22.2,29.84,WSW,238,0.0,3.0,64,0.00,,---,0.00,VWS V14.00,2013-01-01 13:00:00,
2013-01-01 08:05:00,33.0,22.5,29.85,West,261,1.0,3.0,65,0.00,,---,0.00,VWS V14.00,2013-01-01 13:05:00,
2013-01-01 08:10:00,33.0,23.6,29.84,West,261,0.0,3.0,68,0.00,,---,0.00,VWS V14.00,2013-01-01 13:10:00,
2013-01-01 08:15:00,33.0,23.2,29.84,West,261,0.0,3.0,67,0.00,,---,0.00,VWS V14.00,2013-01-01 13:15:00,
2013-01-01 08:20:00,32.9,24.2,29.85,West,261,0.0,3.0,70,0.00,,---,0.00,VWS V14.00,2013-01-01 13:20:00,
2013-01-01 08:25:00,32.6,23.9,29.84,West,261,0.0,0.0,70,0.00,,---,0.00,VWS V14.00,2013-01-01 13:25:00,
2013-01-01 08:30:00,32.5,24.2,29.85,West,271,0.0,0.0,71,0.00,,---,0.00,VWS V14.00,2013-01-01 13:30:00,
2013-01-01 08:35:00,32.5,23.1,29.85,WNW,298,0.0,3.0,68,0.00,,---,0.00,VWS V14.00,2013-01-01 13:35:00,
2013-01-01 08:40:00,32.6,22.5,29.85,WNW,298,1.0,3.0,66,0.00,,---,0.00,VWS V14.00,2013-01-01 13:40:00,
2013-01-01 08:45:00,33.2,22.7,29.85,NW,309,5.0,8.0,65,0.00,,---,0.00,VWS V14.00,2013-01-01 13:45:00,
2013-01-01 08:50:00,33.5,22.6,29.85,West,263,0.0,8.0,64,0.00,,---,0.00,VWS V14.00,2013-01-01 13:50:00,
2013-01-01 08:55:00,33.7,23.2,29.85,NW,304,6.0,8.0,65,0.00,,---,0.00,VWS V14.00,2013-01-01 13:55:00,
2013-01-01 09:00:00,33.9,22.3,29.85,West,267,3.0,8.0,62,0.00,,---,0.00,VWS V14.00,2013-01-01 14:00:00,
2013-01-01 09:05:00,34.0,22.4,29.85,NW,304,1.0,11.0,62,0.00,,---,0.00,VWS V14.00,2013-01-01 14:05:00,
2013-01-01 09:10:00,34.0,23.1,29.87,West,271,2.0,11.0,64,0.00,,---,0.00,VWS V14.00,2013-01-01 14:10:00,
2013-01-01 09:15:00,34.0,22.0,29.86,West,266,4.0,11.0,61,0.00,,---,0.00,VWS V14.00,2013-01-01 14:15:00,
2013-01-01 09:20:00,34.0,22.0,29.87,West,263,14.0,16.0,61,0.00,,---,0.00,VWS V14.00,2013-01-01 14:20:00,
2013-01-01 09:25:00,33.8,22.2,29.87,SW,219,2.0,2.0,62,0.00,,---,0.00,VWS V14.00,2013-01-01 14:25:00,
2013-01-01 09:30:00,33.8,22.5,29.87,SSE,158,1.0,5.0,63,0.00,,---,0.00,VWS V14.00,2013-01-01 14:30:00,
2013-01-01 09:35:00,33.7,21.3,29.87,WSW,240,2.0,16.0,60,0.00,,---,0.00,VWS V14.00,2013-01-01 14:35:00,
2013-01-01 09:40:00,33.7,21.7,29.87,WNW,288,2.0,16.0,61,0.00,,---,0.00,VWS V14.00,2013-01-01 14:40:00,
2013-01-01 09:45:00,33.7,21.7,29.88,WSW,254,0.0,16.0,61,0.00,,---,0.00,VWS V14.00,2013-01-01 14:45:00,
2013-01-01 09:50:00,33.6,21.6,29.87,WNW,298,4.0,16.0,61,0.00,,---,0.00,VWS V14.00,2013-01-01 14:50:00,
2013-01-01 09:55:00,33.6,21.2,29.88,WSW,254,3.0,4.0,60,0.00,,---,0.00,VWS V14.00,2013-01-01 14:55:00,
2013-01-01 10:00:00,33.5,21.5,29.88,West,275,3.0,11.0,61,0.00,,---,0.00,VWS V14.00,2013-01-01 15:00:00,
2013-01-01 10:05:00,33.5,20.7,29.88,WNW,292,3.0,11.0,59,0.00,,---,0.00,VWS V14.00,2013-01-01 15:05:00,
2013-01-01 10:10:00,33.4,20.6,29.87,West,273,0.0,11.0,59,0.00,,---,0.00,VWS V14.00,2013-01-01 15:10:00,
2013-01-01 10:15:00,33.4,20.6,29.88,WNW,286,2.0,11.0,59,0.00,,---,0.00,VWS V14.00,2013-01-01 15:15:00,
2013-01-01 10:20:00,33.4,19.8,29.88,NW,305,5.0,13.0,57,0.00,,---,0.00,VWS V14.00,2013-01-01 15:20:00,
2013-01-01 10:25:00,33.5,20.3,29.88,NW,317,7.0,13.0,58,0.00,,---,0.00,VWS V14.00,2013-01-01 15:25:00,
2013-01-01 10:30:00,33.5,19.9,29.88,WSW,240,4.0,7.0,57,0.00,,---,0.00,VWS V14.00,2013-01-01 15:30:00,
2013-01-01 10:35:00,33.4,20.2,29.87,West,278,4.0,15.0,58,0.00,,---,0.00,VWS V14.00,2013-01-01 15:35:00,
2013-01-01 10:40:00,33.4,20.2,29.88,WSW,240,3.0,15.0,58,0.00,,---,0.00,VWS V14.00,2013-01-01 15:40:00,
2013-01-01 10:45:00,33.4,19.8,29.88,NW,314,2.0,15.0,57,0.00,,---,0.00,VWS V14.00,2013-01-01 15:45:00,
2013-01-01 10:50:00,33.5,19.5,29.87,WNW,294,3.0,15.0,56,0.00,,---,0.00,VWS V14.00,2013-01-01 15:50:00,
2013-01-01 10:55:00,33.5,19.1,29.88,West,278,1.0,15.0,55,0.00,,---,0.00,VWS V14.00,2013-01-01 15:55:00,
2013-01-01 11:00:00,33.6,19.6,29.88,WNW,294,2.0,6.0,56,0.00,,---,0.00,VWS V14.00,2013-01-01 16:00:00,
2013-01-01 11:05:00,33.7,20.9,29.87,WNW,290,1.0,6.0,59,0.00,,---,0.00,VWS V14.00,2013-01-01 16:05:00,
2013-01-01 11:10:00,33.7,19.7,29.88,WNW,288,2.0,6.0,56,0.00,,---,0.00,VWS V14.00,2013-01-01 16:10:00,
2013-01-01 11:15:00,33.8,19.8,29.87,WNW,293,0.0,6.0,56,0.00,,---,0.00,VWS V14.00,2013-01-01 16:15:00,
2013-01-01 11:20:00,33.8,20.2,29.87,WSW,255,1.0,6.0,57,0.00,,---,0.00,VWS V14.00,2013-01-01 16:20:00,
2013-01-01 11:25:00,33.8,18.9,29.87,West,273,2.0,7.0,54,0.00,,---,0.00,VWS V14.00,2013-01-01 16:25:00,
2013-01-01 11:30:00,33.6,18.7,29.86,SW,231,1.0,8.0,54,0.00,,---,0.00,VWS V14.00,2013-01-01 16:30:00,
2013-01-01 11:35:00,33.6,19.2,29.86,West,263,2.0,8.0,55,0.00,,---,0.00,VWS V14.00,2013-01-01 16:35:00,
2013-01-01 11:40:00,33.5,19.1,29.86,NW,306,6.0,10.0,55,0.00,,---,0.00,VWS V14.00,2013-01-01 16:40:00,
2013-01-01 11:45:00,33.4,18.6,29.85,West,268,0.0,10.0,54,0.00,,---,0.00,VWS V14.00,2013-01-01 16:45:00,
2013-01-01 11:50:00,33.4,19.0,29.85,SW,236,3.0,10.0,55,0.00,,---,0.00,VWS V14.00,2013-01-01 16:50:00,
2013-01-01 11:55:00,33.3,18.9,29.84,WNW,294,3.0,10.0,55,0.00,,---,0.00,VWS V14.00,2013-01-01 16:55:00,
2013-01-01 12:00:00,33.2,18.8,29.84,WNW,288,6.0,6.0,55,0.00,,---,0.00,VWS V14.00,2013-01-01 17:00:00,
2013-01-01 12:05:00,33.1,19.5,29.85,West,277,2.0,8.0,57,0.00,,---,0.00,VWS V14.00,2013-01-01 17:05:00,
2013-01-01 12:10:00,33.1,18.7,29.85,WNW,299,0.0,8.0,55,0.00,,---,0.00,VWS V14.00,2013-01-01 17:10:00,
2013-01-01 12:15:00,33.1,18.3,29.84,West,265,4.0,8.0,54,0.00,,---,0.00,VWS V14.00,2013-01-01 17:15:00,
2013-01-01 12:20:00,33.0,18.2,29.84,West,266,4.0,8.0,54,0.00,,---,0.00,VWS V14.00,2013-01-01 17:20:00,
2013-01-01 12:25:00,33.0,18.6,29.84,WSW,257,2.0,12.0,55,0.00,,---,0.00,VWS V14.00,2013-01-01 17:25:00,
2013-01-01 12:30:00,33.0,17.3,29.84,WSW,249,6.0,16.0,52,0.00,,---,0.00,VWS V14.00,2013-01-01 17:30:00,
2013-01-01 12:35:00,32.7,17.5,29.84,WNW,298,7.0,16.0,53,0.00,,---,0.00,VWS V14.00,2013-01-01 17:35:00,
2013-01-01 12:40:00,32.7,17.9,29.85,West,269,6.0,16.0,54,0.00,,---,0.00,VWS V14.00,2013-01-01 17:40:00,
2013-01-01 12:44:00,32.6,17.4,29.85,NW,305,3.0,16.0,53,0.00,,---,0.00,VWS V14.00,2013-01-01 17:44:00,
2013-01-01 12:49:00,32.6,17.4,29.85,West,281,2.0,16.0,53,0.00,,---,0.00,VWS V14.00,2013-01-01 17:49:00,
2013-01-01 12:54:00,32.7,17.5,29.84,West,265,8.0,16.0,53,0.00,,---,0.00,VWS V14.00,2013-01-01 17:54:00,
2013-01-01 12:59:00,32.8,17.6,29.83,WSW,240,5.0,10.0,53,0.00,,---,0.00,VWS V14.00,2013-01-01 17:59:00,
2013-01-01 13:00:00,32.7,17.5,29.84,WNW,291,6.0,16.0,53,0.00,,---,0.00,VWS V14.01,2013-01-01 18:00:00,
2013-01-01 13:04:00,32.8,17.6,29.84,WNW,286,1.0,10.0,53,0.00,,---,0.00,VWS V14.00,2013-01-01 18:04:00,
2013-01-01 13:09:00,32.8,17.6,29.84,WNW,301,3.0,10.0,53,0.00,,---,0.00,VWS V14.00,2013-01-01 18:09:00,
2013-01-01 13:14:00,32.6,17.8,29.84,WNW,287,0.0,10.0,54,0.00,,---,0.00,VWS V14.00,2013-01-01 18:14:00,
2013-01-01 13:19:00,32.4,17.2,29.84,NW,315,1.0,11.0,53,0.00,,---,0.00,VWS V14.00,2013-01-01 18:19:00,
2013-01-01 13:24:00,32.3,17.5,29.84,WNW,291,1.0,11.0,54,0.00,,---,0.00,VWS V14.00,2013-01-01 18:24:00,
2013-01-01 13:29:00,32.3,17.5,29.84,West,271,1.0,6.0,54,0.00,,---,0.00,VWS V14.00,2013-01-01 18:29:00,
2013-01-01 13:30:00,32.3,17.5,29.84,WNW,291,2.0,11.0,54,0.00,,---,0.00,VWS V14.01,2013-01-01 18:30:00,
2013-01-01 13:34:00,32.5,17.7,29.84,West,268,2.0,7.0,54,0.00,,---,0.00,VWS V14.00,2013-01-01 18:34:00,
2013-01-01 13:39:00,32.6,16.9,29.84,West,275,1.0,7.0,52,0.00,,---,0.00,VWS V14.00,2013-01-01 18:39:00,
2013-01-01 13:44:00,32.4,16.3,29.83,NNW,327,3.0,11.0,51,0.00,,---,0.00,VWS V14.00,2013-01-01 18:44:00,
2013-01-01 13:49:00,32.1,16.0,29.83,WNW,294,0.0,11.0,51,0.00,,---,0.00,VWS V14.00,2013-01-01 18:49:00,
2013-01-01 13:54:00,32.0,16.8,29.84,NW,309,0.0,11.0,53,0.00,,---,0.00,VWS V14.00,2013-01-01 18:54:00,
2013-01-01 13:59:00,31.9,15.8,29.84,WNW,284,2.0,9.0,51,0.00,,---,0.00,VWS V14.00,2013-01-01 18:59:00,
2013-01-01 14:00:00,32.0,16.8,29.84,NW,309,1.0,11.0,53,0.00,,---,0.00,VWS V14.01,2013-01-01 19:00:00,
2013-01-01 14:04:00,31.8,16.2,29.83,West,265,2.0,9.0,52,0.00,,---,0.00,VWS V14.00,2013-01-01 19:04:00,
2013-01-01 14:09:00,31.7,16.1,29.83,West,276,1.0,9.0,52,0.00,,---,0.00,VWS V14.00,2013-01-01 19:09:00,
2013-01-01 14:14:00,31.6,16.5,29.82,WNW,291,1.0,9.0,53,0.00,,---,0.00,VWS V14.00,2013-01-01 19:14:00,
2013-01-01 14:19:00,31.6,16.5,29.82,WNW,291,0.0,9.0,53,0.00,,---,0.00,VWS V14.00,2013-01-01 19:19:00,
2013-01-01 14:24:00,31.6,16.0,29.82,WNW,302,4.0,9.0,52,0.00,,---,0.00,VWS V14.00,2013-01-01 19:24:00,
2013-01-01 14:29:00,31.5,16.8,29.83,WNW,286,3.0,4.0,54,0.00,,---,0.00,VWS V14.00,2013-01-01 19:29:00,
2013-01-01 14:30:00,31.5,15.9,29.82,NW,304,3.0,9.0,52,0.00,,---,0.00,VWS V14.01,2013-01-01 19:30:00,
2013-01-01 14:34:00,31.4,16.3,29.83,West,279,5.0,7.0,53,0.00,,---,0.00,VWS V14.00,2013-01-01 19:34:00,
2013-01-01 14:39:00,31.3,16.6,29.83,WNW,292,8.0,9.0,54,0.00,,---,0.00,VWS V14.00,2013-01-01 19:39:00,
2013-01-01 14:44:00,31.2,16.1,29.83,NNW,331,4.0,15.0,53,0.00,,---,0.00,VWS V14.00,2013-01-01 19:44:00,
2013-01-01 14:49:00,31.1,16.0,29.84,WNW,285,4.0,15.0,53,0.00,,---,0.00,VWS V14.00,2013-01-01 19:49:00,
2013-01-01 14:54:00,31.2,15.6,29.84,WNW,290,3.0,15.0,52,0.00,,---,0.00,VWS V14.00,2013-01-01 19:54:00,
2013-01-01 14:59:00,31.0,15.9,29.84,West,270,3.0,10.0,53,0.00,,---,0.00,VWS V14.00,2013-01-01 19:59:00,
2013-01-01 15:00:00,31.1,15.5,29.84,West,271,2.0,15.0,52,0.00,,---,0.00,VWS V14.01,2013-01-01 20:00:00,
2013-01-01 15:04:00,30.9,16.2,29.84,NW,309,0.0,11.0,54,0.00,,---,0.00,VWS V14.00,2013-01-01 20:04:00,
2013-01-01 15:09:00,30.8,16.1,29.85,WNW,292,7.0,11.0,54,0.00,,---,0.00,VWS V14.00,2013-01-01 20:09:00,
2013-01-01 15:14:00,30.7,16.0,29.85,West,272,1.0,11.0,54,0.00,,---,0.00,VWS V14.00,2013-01-01 20:14:00,
2013-01-01 15:19:00,30.7,16.9,29.85,NW,308,3.0,11.0,56,0.00,,---,0.00,VWS V14.00,2013-01-01 20:19:00,
2013-01-01 15:24:00,30.6,17.6,29.86,West,281,0.0,11.0,58,0.00,,---,0.00,VWS V14.00,2013-01-01 20:24:00,
2013-01-01 15:29:00,30.6,19.1,29.86,West,273,3.0,3.0,62,0.00,,---,0.00,VWS V14.00,2013-01-01 20:29:00,
2013-01-01 15:30:00,30.6,17.6,29.86,West,281,0.0,11.0,58,0.00,,---,0.00,VWS V14.01,2013-01-01 20:30:00,
2013-01-01 15:34:00,30.2,19.9,29.86,NW,323,0.0,7.0,65,0.00,,---,0.00,VWS V14.00,2013-01-01 20:34:00,
2013-01-01 15:39:00,29.7,19.4,29.86,WNW,303,2.0,7.0,65,0.00,,---,0.00,VWS V14.00,2013-01-01 20:39:00,
2013-01-01 15:44:00,29.4,19.1,29.87,West,266,4.0,7.0,65,0.00,,---,0.00,VWS V14.00,2013-01-01 20:44:00,
2013-01-01 15:49:00,29.1,18.1,29.87,NW,317,4.0,7.0,63,0.00,,---,0.00,VWS V14.00,2013-01-01 20:49:00,
2013-01-01 15:54:00,28.9,17.2,29.87,WNW,301,7.0,12.0,61,0.00,,---,0.00,VWS V14.00,2013-01-01 20:54:00,
2013-01-01 15:59:00,28.7,16.2,29.87,West,272,4.0,9.0,59,0.00,,---,0.00,VWS V14.00,2013-01-01 20:59:00,
2013-01-01 16:00:00,28.9,17.2,29.87,West,281,5.0,12.0,61,0.00,,---,0.00,VWS V14.01,2013-01-01 21:00:00,
2013-01-01 16:04:00,28.6,15.7,29.87,West,271,4.0,11.0,58,0.00,,---,0.00,VWS V14.00,2013-01-01 21:04:00,
2013-01-01 16:09:00,28.4,15.1,29.87,WSW,245,3.0,13.0,57,0.00,,---,0.00,VWS V14.00,2013-01-01 21:09:00,
2013-01-01 16:14:00,28.2,14.9,29.88,NW,310,3.0,13.0,57,0.00,,---,0.00,VWS V14.00,2013-01-01 21:14:00,
2013-01-01 16:19:00,28.1,14.4,29.87,WNW,288,0.0,13.0,56,0.00,,---,0.00,VWS V14.00,2013-01-01 21:19:00,
2013-01-01 16:24:00,27.9,14.6,29.87,WNW,287,4.0,13.0,57,0.00,,---,0.00,VWS V14.00,2013-01-01 21:24:00,
2013-01-01 16:29:00,27.8,14.6,29.87,West,275,0.0,6.0,57,0.00,,---,0.00,VWS V14.00,2013-01-01 21:29:00,
2013-01-01 16:30:00,28.0,14.8,29.87,NW,304,4.0,13.0,57,0.00,,---,0.00,VWS V14.01,2013-01-01 21:30:00,
2013-01-01 16:34:00,27.6,14.4,29.88,WSW,248,4.0,7.0,57,0.00,,---,0.00,VWS V14.00,2013-01-01 21:34:00,
2013-01-01 16:39:00,27.5,14.3,29.90,WNW,290,1.0,7.0,57,0.00,,---,0.00,VWS V14.00,2013-01-01 21:39:00,
2013-01-01 16:44:00,27.5,13.5,29.89,NW,304,2.0,13.0,55,0.00,,---,0.00,VWS V14.00,2013-01-01 21:44:00,
2013-01-01 16:49:00,27.4,13.0,29.90,WNW,290,5.0,13.0,54,0.00,,---,0.00,VWS V14.00,2013-01-01 21:49:00,
2013-01-01 16:54:00,27.2,12.8,29.90,WSW,254,4.0,13.0,54,0.00,,---,0.00,VWS V14.00,2013-01-01 21:54:00,
2013-01-01 16:59:00,27.1,12.2,29.89,NW,313,3.0,12.0,53,0.00,,---,0.00,VWS V14.00,2013-01-01 21:59:00,
2013-01-01 17:00:00,27.3,12.9,29.90,WNW,303,3.0,13.0,54,0.00,,---,0.00,VWS V14.01,2013-01-01 22:00:00,
2013-01-01 17:04:00,27.0,12.6,29.90,NW,318,4.0,12.0,54,0.00,,---,0.00,VWS V14.00,2013-01-01 22:04:00,
2013-01-01 17:09:00,26.9,12.1,29.90,WNW,283,2.0,12.0,53,0.00,,---,0.00,VWS V14.00,2013-01-01 22:09:00,
2013-01-01 17:14:00,26.7,11.9,29.90,SW,221,3.0,12.0,53,0.00,,---,0.00,VWS V14.00,2013-01-01 22:14:00,
2013-01-01 17:19:00,26.6,12.2,29.90,West,267,0.0,12.0,54,0.00,,---,0.00,VWS V14.00,2013-01-01 22:19:00,
2013-01-01 17:24:00,26.5,12.1,29.90,NW,304,3.0,12.0,54,0.00,,---,0.00,VWS V14.00,2013-01-01 22:24:00,
2013-01-01 17:29:00,26.3,12.8,29.91,WNW,302,0.0,5.0,56,0.00,,---,0.00,VWS V14.00,2013-01-01 22:29:00,
2013-01-01 17:30:00,26.5,12.1,29.90,NW,317,5.0,12.0,54,0.00,,---,0.00,VWS V14.01,2013-01-01 22:30:00,
2013-01-01 17:34:00,26.2,12.2,29.91,West,276,2.0,6.0,55,0.00,,---,0.00,VWS V14.00,2013-01-01 22:34:00,
2013-01-01 17:39:00,26.1,12.2,29.92,WNW,290,3.0,6.0,55,0.00,,---,0.00,VWS V14.00,2013-01-01 22:39:00,
2013-01-01 17:44:00,26.1,12.2,29.92,WNW,284,3.0,9.0,55,0.00,,---,0.00,VWS V14.00,2013-01-01 22:44:00,
2013-01-01 17:49:00,26.0,12.1,29.92,WNW,298,2.0,9.0,55,0.00,,---,0.00,VWS V14.00,2013-01-01 22:49:00,
2013-01-01 17:54:00,26.0,12.1,29.92,WNW,300,1.0,9.0,55,0.00,,---,0.00,VWS V14.00,2013-01-01 22:54:00,
2013-01-01 17:59:00,25.9,12.4,29.92,WNW,290,5.0,6.0,56,0.00,,---,0.00,VWS V14.00,2013-01-01 22:59:00,
2013-01-01 18:00:00,25.9,12.4,29.92,WNW,300,0.0,9.0,56,0.00,,---,0.00,VWS V14.01,2013-01-01 23:00:00,
2013-01-01 18:04:00,25.8,12.7,29.92,NW,319,3.0,7.0,57,0.00,,---,0.00,VWS V14.00,2013-01-01 23:04:00,
2013-01-01 18:09:00,25.7,13.0,29.92,WNW,302,0.0,7.0,58,0.00,,---,0.00,VWS V14.00,2013-01-01 23:09:00,
2013-01-01 18:14:00,25.5,12.8,29.93,West,269,2.0,7.0,58,0.00,,---,0.00,VWS V14.00,2013-01-01 23:14:00,
2013-01-01 18:19:00,25.4,12.7,29.93,WSW,244,3.0,7.0,58,0.00,,---,0.00,VWS V14.00,2013-01-01 23:19:00,
2013-01-01 18:24:00,25.3,13.0,29.94,WNW,294,4.0,7.0,59,0.00,,---,0.00,VWS V14.00,2013-01-01 23:24:00,
2013-01-01 18:29:00,25.1,12.4,29.94,WSW,256,1.0,4.0,58,0.00,,---,0.00,VWS V14.00,2013-01-01 23:29:00,
2013-01-01 18:30:00,25.2,12.9,29.94,WNW,296,0.0,7.0,59,0.00,,---,0.00,VWS V14.01,2013-01-01 23:30:00,
2013-01-01 18:34:00,25.1,12.4,29.94,WNW,302,2.0,7.0,58,0.00,,---,0.00,VWS V14.00,2013-01-01 23:34:00,
2013-01-01 18:39:00,25.1,12.4,29.94,NW,306,0.0,7.0,58,0.00,,---,0.00,VWS V14.00,2013-01-01 23:39:00,
2013-01-01 18:44:00,24.9,12.2,29.93,West,267,0.0,7.0,58,0.00,,---,0.00,VWS V14.00,2013-01-01 23:44:00,
2013-01-01 18:49:00,24.7,12.0,29.94,WNW,303,0.0,7.0,58,0.00,,---,0.00,VWS V14.00,2013-01-01 23:49:00,
2013-01-01 18:54:00,24.5,12.2,29.94,WNW,283,0.0,7.0,59,0.00,,---,0.00,VWS V14.00,2013-01-01 23:54:00,
2013-01-01 18:59:00,24.4,12.1,29.94,WNW,298,1.0,4.0,59,0.00,,---,0.00,VWS V14.00,2013-01-01 23:59:00,
2013-01-01 19:00:00,24.5,12.2,29.94,WNW,283,2.0,7.0,59,0.00,,---,0.00,VWS V14.01,2013-01-02 00:00:00,
2013-01-01 19:04:00,24.2,11.9,29.94,WNW,294,1.0,6.0,59,0.00,,---,0.00,VWS V14.00,2013-01-02 00:04:00,
2013-01-01 19:09:00,24.1,11.9,29.94,WNW,289,2.0,6.0,59,0.00,,---,0.00,VWS V14.00,2013-01-02 00:09:00,
2013-01-01 19:14:00,23.9,11.7,29.95,WNW,301,2.0,6.0,59,0.00,,---,0.00,VWS V14.00,2013-01-02 00:14:00,
2013-01-01 19:19:00,23.7,11.5,29.95,WNW,288,0.0,6.0,59,0.00,,---,0.00,VWS V14.00,2013-01-02 00:19:00,
2013-01-01 19:24:00,23.5,11.7,29.95,WNW,288,0.0,6.0,60,0.00,,---,0.00,VWS V14.00,2013-01-02 00:24:00,
2013-01-01 19:29:00,23.3,11.5,29.95,NW,306,0.0,3.0,60,0.00,,---,0.00,VWS V14.00,2013-01-02 00:29:00,
2013-01-01 19:30:00,23.5,11.7,29.95,WNW,288,0.0,6.0,60,0.00,,---,0.00,VWS V14.01,2013-01-02 00:30:00,
2013-01-01 19:34:00,23.1,12.0,29.95,NW,306,1.0,3.0,62,0.00,,---,0.00,VWS V14.00,2013-01-02 00:34:00,
2013-01-01 19:39:00,22.9,11.5,29.95,NW,306,0.0,3.0,61,0.00,,---,0.00,VWS V14.00,2013-01-02 00:39:00,
2013-01-01 19:44:00,22.7,11.3,29.96,NW,306,0.0,3.0,61,0.00,,---,0.00,VWS V14.00,2013-01-02 00:44:00,
2013-01-01 19:49:00,22.4,11.4,29.95,NW,306,0.0,3.0,62,0.00,,---,0.00,VWS V14.00,2013-01-02 00:49:00,
2013-01-01 19:54:00,22.0,11.0,29.95,NW,306,1.0,3.0,62,0.00,,---,0.00,VWS V14.00,2013-01-02 00:54:00,
2013-01-01 19:59:00,21.7,11.4,29.95,WNW,293,0.0,4.0,64,0.00,,---,0.00,VWS V14.00,2013-01-02 00:59:00,
2013-01-01 20:00:00,22.0,11.0,29.95,WNW,293,4.0,4.0,62,0.00,,---,0.00,VWS V14.01,2013-01-02 01:00:00,
2013-01-01 20:04:00,21.4,10.8,29.95,WNW,287,0.0,4.0,63,0.00,,---,0.00,VWS V14.00,2013-01-02 01:04:00,
2013-01-01 20:09:00,21.1,10.1,29.95,WNW,287,0.0,4.0,62,0.00,,---,0.00,VWS V14.00,2013-01-02 01:09:00,
2013-01-01 20:14:00,20.9,9.9,29.95,WNW,287,0.0,4.0,62,0.00,,---,0.00,VWS V14.00,2013-01-02 01:14:00,
2013-01-01 20:19:00,20.7,9.8,29.94,WNW,287,0.0,4.0,62,0.00,,---,0.00,VWS V14.00,2013-01-02 01:19:00,
2013-01-01 20:24:00,20.5,9.6,29.95,WNW,287,0.0,4.0,62,0.00,,---,0.00,VWS V14.00,2013-01-02 01:24:00,
2013-01-01 20:29:00,20.3,9.4,29.95,WNW,287,0.0,0.0,62,0.00,,---,0.00,VWS V14.00,2013-01-02 01:29:00,
2013-01-01 20:30:00,20.5,9.6,29.95,WNW,287,0.0,4.0,62,0.00,,---,0.00,VWS V14.01,2013-01-02 01:30:00,
2013-01-01 20:34:00,20.1,9.5,29.95,WNW,287,0.0,0.0,63,0.00,,---,0.00,VWS V14.00,2013-01-02 01:34:00,
2013-01-01 20:39:00,19.8,9.6,29.95,WNW,287,0.0,1.0,64,0.00,,---,0.00,VWS V14.00,2013-01-02 01:39:00,
2013-01-01 20:44:00,19.6,9.1,29.95,WNW,287,1.0,1.0,63,0.00,,---,0.00,VWS V14.00,2013-01-02 01:44:00,
2013-01-01 20:49:00,19.3,8.8,29.95,WNW,287,0.0,1.0,63,0.00,,---,0.00,VWS V14.00,2013-01-02 01:49:00,
2013-01-01 20:54:00,19.1,8.6,29.95,WNW,287,0.0,1.0,63,0.00,,---,0.00,VWS V14.00,2013-01-02 01:54:00,
2013-01-01 20:59:00,18.8,9.0,29.95,WNW,287,0.0,1.0,65,0.00,,---,0.00,VWS V14.00,2013-01-02 01:59:00,
2013-01-01 21:00:00,19.1,8.6,29.95,WNW,287,0.0,1.0,63,0.00,,---,0.00,VWS V14.01,2013-01-02 02:00:00,
2013-01-01 21:04:00,18.4,9.3,29.96,WNW,287,0.0,1.0,67,0.00,,---,0.00,VWS V14.00,2013-01-02 02:04:00,
2013-01-01 21:09:00,18.0,8.9,29.95,WNW,287,0.0,1.0,67,0.00,,---,0.00,VWS V14.00,2013-01-02 02:09:00,
2013-01-01 21:14:00,17.7,8.6,29.96,WNW,287,0.0,1.0,67,0.00,,---,0.00,VWS V14.00,2013-01-02 02:14:00,
2013-01-01 21:19:00,17.5,8.4,29.97,WNW,287,0.0,1.0,67,0.00,,---,0.00,VWS V14.00,2013-01-02 02:19:00,
2013-01-01 21:24:00,17.3,7.9,29.97,WNW,287,0.0,1.0,66,0.00,,---,0.00,VWS V14.00,2013-01-02 02:24:00,
2013-01-01 21:29:00,17.3,8.6,29.96,WNW,287,0.0,1.0,68,0.00,,---,0.00,VWS V14.00,2013-01-02 02:29:00,
2013-01-01 21:30:00,17.4,8.0,29.96,WNW,287,0.0,1.0,66,0.00,,---,0.00,VWS V14.01,2013-01-02 02:30:00,
2013-01-01 21:34:00,17.1,8.1,29.96,WNW,287,0.0,1.0,67,0.00,,---,0.00,VWS V14.00,2013-01-02 02:34:00,
2013-01-01 21:39:00,17.1,8.4,29.96,WNW,287,0.0,1.0,68,0.00,,---,0.00,VWS V14.00,2013-01-02 02:39:00,
2013-01-01 21:44:00,16.8,8.4,29.96,WNW,287,0.0,1.0,69,0.00,,---,0.00,VWS V14.00,2013-01-02 02:44:00,
2013-01-01 21:49:00,16.5,8.4,29.96,WNW,287,0.0,1.0,70,0.00,,---,0.00,VWS V14.00,2013-01-02 02:49:00,
2013-01-01 21:54:00,16.2,8.1,29.96,WNW,287,0.0,1.0,70,0.00,,---,0.00,VWS V14.00,2013-01-02 02:54:00,
2013-01-01 21:59:00,16.1,8.4,29.97,WNW,287,0.0,0.0,71,0.00,,---,0.00,VWS V14.00,2013-01-02 02:59:00,
2013-01-01 22:00:00,16.2,8.1,29.97,WNW,287,0.0,1.0,70,0.00,,---,0.00,VWS V14.01,2013-01-02 03:00:00,
2013-01-01 22:04:00,15.9,8.2,29.97,WNW,287,0.0,0.0,71,0.00,,---,0.00,VWS V14.00,2013-01-02 03:04:00,
2013-01-01 22:09:00,15.8,8.1,29.98,WNW,287,0.0,0.0,71,0.00,,---,0.00,VWS V14.00,2013-01-02 03:09:00,
2013-01-01 22:14:00,15.6,8.2,29.97,WNW,287,0.0,0.0,72,0.00,,---,0.00,VWS V14.00,2013-01-02 03:14:00,
2013-01-01 22:19:00,15.4,8.0,29.98,WNW,287,0.0,0.0,72,0.00,,---,0.00,VWS V14.00,2013-01-02 03:19:00,
2013-01-01 22:24:00,15.3,7.9,29.98,WNW,287,0.0,1.0,72,0.00,,---,0.00,VWS V14.00,2013-01-02 03:24:00,
2013-01-01 22:29:00,15.1,7.7,29.98,WNW,287,0.0,0.0,72,0.00,,---,0.00,VWS V14.00,2013-01-02 03:29:00,
2013-01-01 22:30:00,15.2,7.8,29.98,WNW,287,0.0,1.0,72,0.00,,---,0.00,VWS V14.01,2013-01-02 03:30:00,
2013-01-01 22:34:00,15.0,7.6,29.98,WNW,287,0.0,0.0,72,0.00,,---,0.00,VWS V14.00,2013-01-02 03:34:00,
2013-01-01 22:39:00,14.9,7.5,29.98,WNW,287,0.0,0.0,72,0.00,,---,0.00,VWS V14.00,2013-01-02 03:39:00,
2013-01-01 22:44:00,14.8,7.4,29.97,WNW,287,1.0,1.0,72,0.00,,---,0.00,VWS V14.00,2013-01-02 03:44:00,
2013-01-01 22:49:00,14.6,7.5,29.97,WNW,287,0.0,1.0,73,0.00,,---,0.00,VWS V14.00,2013-01-02 03:49:00,
2013-01-01 22:54:00,14.3,7.6,29.98,WNW,287,0.0,1.0,74,0.00,,---,0.00,VWS V14.00,2013-01-02 03:54:00,
2013-01-01 22:59:00,14.1,7.7,29.98,WNW,287,0.0,1.0,75,0.00,,---,0.00,VWS V14.00,2013-01-02 03:59:00,
2013-01-01 23:00:00,14.3,7.6,29.98,WNW,287,0.0,1.0,74,0.00,,---,0.00,VWS V14.01,2013-01-02 04:00:00,
2013-01-01 23:04:00,13.9,7.2,29.98,WNW,287,0.0,1.0,74,0.00,,---,0.00,VWS V14.00,2013-01-02 04:04:00,
2013-01-01 23:09:00,13.7,7.0,29.98,WNW,287,0.0,1.0,74,0.00,,---,0.00,VWS V14.00,2013-01-02 04:09:00,
2013-01-01 23:14:00,13.6,7.2,29.98,WNW,287,0.0,1.0,75,0.00,,---,0.00,VWS V14.00,2013-01-02 04:14:00,
2013-01-01 23:19:00,13.4,7.0,29.98,WNW,287,0.0,1.0,75,0.00,,---,0.00,VWS V14.00,2013-01-02 04:19:00,
2013-01-01 23:24:00,13.4,7.0,29.99,WNW,287,0.0,1.0,75,0.00,,---,0.00,VWS V14.00,2013-01-02 04:24:00,
2013-01-01 23:29:00,13.5,7.1,29.99,WNW,287,0.0,1.0,75,0.00,,---,0.00,VWS V14.00,2013-01-02 04:29:00,
2013-01-01 23:30:00,13.4,7.0,29.99,WNW,287,0.0,1.0,75,0.00,,---,0.00,VWS V14.01,2013-01-02 04:30:00,
2013-01-01 23:34:00,13.4,7.0,29.99,WNW,287,0.0,1.0,75,0.00,,---,0.00,VWS V14.00,2013-01-02 04:34:00,
2013-01-01 23:39:00,13.4,7.0,29.98,WNW,287,0.0,2.0,75,0.00,,---,0.00,VWS V14.00,2013-01-02 04:39:00,
2013-01-01 23:44:00,13.3,7.2,29.98,WNW,287,0.0,2.0,76,0.00,,---,0.00,VWS V14.00,2013-01-02 04:44:00,
2013-01-01 23:49:00,13.2,6.8,29.98,WNW,287,0.0,2.0,75,0.00,,---,0.00,VWS V14.00,2013-01-02 04:49:00,
2013-01-01 23:54:00,13.1,7.0,29.99,WNW,287,0.0,2.0,76,0.00,,---,0.00,VWS V14.00,2013-01-02 04:54:00,
2013-01-01 23:59:00,13.1,7.0,29.98,WNW,287,1.0,1.0,76,0.00,,---,0.00,VWS V14.00,2013-01-02 04:59:00,